Home > Products > Valid Products > TAF

000
FTUS41 KALY 301159 CCA
TAFPOU
TAF COR
KPOU 301159Z 3012/3112 VRB04KT 6SM -SHRA BR BKN010 BKN030 OVC050
      TEMPO 3012/3014 2SM -RA BR BKN008
     FM301700 22006KT P6SM VCSH SCT035 SCT150
      TEMPO 3018/3022 4SM -TSRA BR BKN035CB
     FM310000 VRB03KT 6SM BR VCSH BKN035 BKN050
     FM310600 00000KT 5SM BR BKN080=



000
FTUS41 KALY 301138 AAA
TAFALB
TAF AMD
KALB 301138Z 3012/3106 18008KT P6SM VCSH SCT070 BKN100 OVC200
     FM301300 29005KT P6SM VCSH BKN070 OVC100
     FM301500 21008KT P6SM VCSH BKN045 BKN110 BKN200
     FM310400 25005KT P6SM SKC=



000
FTUS41 KALY 301136 AAA
TAFGFL
TAF AMD
KGFL 301136Z 3012/3106 22005KT P6SM VCSH OVC006
     FM301300 19005KT 6SM BR VCSH SCT015 SCT025 BKN120
     FM301500 21008KT P6SM VCSH BKN045 BKN110 BKN200
     FM302100 22009KT P6SM SCT045 SCT100
     FM310000 23005KT P6SM SKC=



000
FTUS41 KALY 291622 AAA
TAFALB
TAF AMD
KALB 291622Z 2916/3012 18006KT P6SM VCTS SCT040CB BKN250
     FM291700 17010KT P6SM VCTS SCT040CB BKN120
     FM292000 17010G15KT P6SM BKN060
     FM292300 17008KT P6SM SCT035 BKN150
     FM300800 17006KT 6SM BR VCSH BKN015 OVC090=



000
FTUS41 KALY 290713 AAB
TAFGFL
TAF AMD
KGFL 290713Z 2907/3006 00000KT 6SM BR FEW003 SCT080
      TEMPO 2907/2910 1/4SM FG BKN002
     FM291200 VRB03KT P6SM SCT035 BKN120
     FM291700 16007KT P6SM VCSH SCT060 BKN080
     FM300000 19003KT 5SM BR VCSH SCT030 BKN050 OVC090=



000
FTUS41 KALY 282325
TAFALB
TAF
KALB 282325Z 2900/2924 33003KT P6SM BKN250
     FM290300 00000KT P6SM SCT250
     FM291400 18004KT P6SM FEW050 SCT100
     FM291800 18008KT P6SM VCSH SCT050 BKN080=



000
FTUS41 KALY 282325
TAFGFL
TAF
KGFL 282325Z 2900/2924 00000KT P6SM SCT110
     FM290700 00000KT 3SM BR SCT003
     FM291100 18005KT P6SM FEW050
     FM291600 18008KT P6SM VCSH SCT050 BKN080=



000
FTUS41 KALY 282325
TAFPOU
TAF
KPOU 282325Z 2900/2924 22008KT P6SM FEW120 SCT250
     FM290300 00000KT P6SM SCT120 SCT250
     FM290800 00000KT P6SM BKN120
     FM291500 20007KT P6SM SCT040 SCT120=



000
FTUS41 KALY 281731
TAFALB
TAF
KALB 281731Z 2818/2918 28006KT P6SM FEW060 SCT250
     FM282300 VRB03KT P6SM SCT250
     FM290800 00000KT 3SM BR FEW005
     FM291300 18005KT P6SM SCT040=



000
FTUS41 KALY 281731
TAFPOU
TAF
KPOU 281731Z 2818/2918 23006KT P6SM SCT070
     FM282300 VRB03KT P6SM SCT250
     FM290800 00000KT 3SM BR FEW004
     FM291300 22005KT P6SM SCT040=



000
FTUS41 KALY 281731
TAFGFL
TAF
KGFL 281731Z 2818/2918 16004KT P6SM FEW060 SCT250
     FM282300 VRB03KT P6SM BKN250
     FM290700 00000KT 3SM BR SCT003
     FM291300 18005KT P6SM SCT040=



000
FTUS41 KALY 281142
TAFGFL
TAF
KGFL 281142Z 2812/2912 00000KT 6SM BR SCT250
     FM281300 VRB03KT P6SM FEW035 BKN200
     FM281700 16006KT P6SM FEW060 SCT250
     FM282300 VRB03KT P6SM BKN250
     FM290700 00000KT 3SM BR SCT003=



000
FTUS41 KALY 281142
TAFPOU
TAF
KPOU 281142Z 2812/2912 VRB03KT P6SM SCT120 BKN250
     FM281600 23006KT P6SM SCT070
     FM282300 VRB03KT P6SM SCT250
     FM290800 00000KT 4SM BR FEW004=



000
FTUS41 KALY 281142
TAFALB
TAF
KALB 281142Z 2812/2912 18004KT P6SM SCT100 BKN250
     FM281600 25006KT P6SM FEW060 SCT250
     FM282300 VRB03KT P6SM SCT250
     FM290800 00000KT 4SM BR FEW005=



    US Dept of Commerce
    National Oceanic and Atmospheric Administration
    National Weather Service
    1325 East West Highway
    Silver Spring, MD 20910
    Page Author: NWS Internet Services Team
Disclaimer
Information Quality
Credits
Glossary
Privacy Policy
Freedom of Information Act (FOIA)
About Us
Career Opportunities